Time;durP1;ratioP1;P1;durP2;ratioP2;P2;SDS_P1;SDS_P2;PMS_P1;PMS_P2;Temp;Humidity;BMP_temperature;BMP_pressure;BME280_temperature;BME280_humidity;BME280_pressure;Samples;Min_cycle;Max_cycle;Signal;HPM_P1;HPM_P2
2024/02/04 00:02:17;;;;;;;4.10;2.88;;;;;;;;;;5101969;28;20208;-77
2024/02/04 00:04:44;;;;;;;3.25;2.95;;;;;;;;;;5103841;28;20303;-77
2024/02/04 00:07:12;;;;;;;3.13;2.83;;;;;;;;;;5097207;28;20308;-78
2024/02/04 00:09:41;;;;;;;2.70;2.50;;;;;;;;;;5092276;28;20624;-77
2024/02/04 00:12:09;;;;;;;2.00;1.85;;;;;;;;;;5095007;28;20605;-77
2024/02/04 00:14:36;;;;;;;3.45;3.15;;;;;;;;;;5100375;28;20244;-78
2024/02/04 00:17:04;;;;;;;4.10;3.65;;;;;;;;;;5102025;28;20232;-76
2024/02/04 00:19:31;;;;;;;3.25;2.95;;;;;;;;;;5103158;28;20682;-77
2024/02/04 00:21:59;;;;;;;3.28;2.80;;;;;;;;;;5096855;28;20210;-77
2024/02/04 00:24:26;;;;;;;3.50;3.20;;;;;;;;;;5097607;28;20200;-77
2024/02/04 00:26:55;;;;;;;3.13;2.65;;;;;;;;;;5097292;28;20678;-78
2024/02/04 00:29:22;;;;;;;2.40;2.20;;;;;;;;;;5097121;28;20292;-79
2024/02/04 00:31:50;;;;;;;4.00;3.38;;;;;;;;;;5097085;28;20204;-77
2024/02/04 00:34:17;;;;;;;4.38;3.95;;;;;;;;;;5096694;28;20291;-77
2024/02/04 00:36:45;;;;;;;3.75;3.45;;;;;;;;;;5096555;28;20231;-77
2024/02/04 00:39:12;;;;;;;2.67;2.47;;;;;;;;;;5097133;28;20204;-77
2024/02/04 00:41:40;;;;;;;4.40;2.08;;;;;;;;;;5097479;28;20249;-77
2024/02/04 00:44:08;;;;;;;3.22;2.88;;;;;;;;;;5096618;28;20291;-79
2024/02/04 00:46:36;;;;;;;2.75;2.55;;;;;;;;;;5097127;28;20228;-77
2024/02/04 00:49:03;;;;;;;2.83;2.63;;;;;;;;;;5096646;28;20200;-77
2024/02/04 00:51:31;;;;;;;3.28;2.75;;;;;;;;;;5097650;28;20212;-79
2024/02/04 00:53:59;;;;;;;2.92;2.50;;;;;;;;;;5100302;28;20250;-79
2024/02/04 00:56:26;;;;;;;3.17;2.88;;;;;;;;;;5104021;28;20200;-79
2024/02/04 00:58:54;;;;;;;3.22;2.92;;;;;;;;;;5105678;28;20324;-78
2024/02/04 01:01:23;;;;;;;3.53;3.22;;;;;;;;;;5105226;28;20232;-79
2024/02/04 01:03:50;;;;;;;2.90;2.65;;;;;;;;;;5104247;28;20314;-79
2024/02/04 01:06:17;;;;;;;2.50;2.30;;;;;;;;;;5096005;28;20235;-78
2024/02/04 01:08:45;;;;;;;3.78;2.90;;;;;;;;;;5104705;28;20677;-79
2024/02/04 01:11:12;;;;;;;4.30;2.92;;;;;;;;;;5104466;28;20267;-79
2024/02/04 01:13:40;;;;;;;4.13;3.50;;;;;;;;;;5104759;28;20524;-78
2024/02/04 01:16:07;;;;;;;2.88;2.67;;;;;;;;;;5104975;28;20204;-79
2024/02/04 01:18:36;;;;;;;1.80;1.67;;;;;;;;;;5095893;28;20294;-78
2024/02/04 01:21:04;;;;;;;2.85;2.58;;;;;;;;;;5092719;28;20283;-78
2024/02/04 01:23:31;;;;;;;2.67;2.47;;;;;;;;;;5092274;28;20299;-79
2024/02/04 01:25:59;;;;;;;2.40;2.20;;;;;;;;;;5096068;28;20287;-79
2024/02/04 01:28:26;;;;;;;1.67;1.58;;;;;;;;;;5104630;28;20832;-78
2024/02/04 01:30:54;;;;;;;2.67;2.47;;;;;;;;;;5093005;28;20228;-78
2024/02/04 01:33:21;;;;;;;2.15;1.95;;;;;;;;;;5093108;28;20228;-79
2024/02/04 01:35:50;;;;;;;3.28;2.88;;;;;;;;;;5103486;28;20291;-78
2024/02/04 01:38:17;;;;;;;2.90;2.00;;;;;;;;;;5098130;28;20336;-79
2024/02/04 01:40:46;;;;;;;1.45;1.35;;;;;;;;;;5094317;28;20283;-78
2024/02/04 01:43:13;;;;;;;1.60;1.50;;;;;;;;;;5096085;28;20207;-78
2024/02/04 01:45:41;;;;;;;1.55;1.45;;;;;;;;;;5096174;28;20683;-78
2024/02/04 01:48:09;;;;;;;2.00;1.90;;;;;;;;;;5099277;28;20228;-79
2024/02/04 01:50:36;;;;;;;2.10;1.90;;;;;;;;;;5096769;28;20729;-79
2024/02/04 01:53:05;;;;;;;1.95;1.58;;;;;;;;;;5096469;28;20838;-79
2024/02/04 01:55:33;;;;;;;2.05;1.88;;;;;;;;;;5096679;28;20215;-78
2024/02/04 01:58:00;;;;;;;2.20;2.05;;;;;;;;;;5095891;28;20730;-78
2024/02/04 02:00:28;;;;;;;1.73;1.63;;;;;;;;;;5096507;28;20208;-79
2024/02/04 02:02:56;;;;;;;2.28;2.08;;;;;;;;;;5095680;28;20200;-79
2024/02/04 02:05:23;;;;;;;1.60;1.50;;;;;;;;;;5096372;28;20685;-80
2024/02/04 02:07:51;;;;;;;1.40;1.30;;;;;;;;;;5095918;28;20624;-79
2024/02/04 02:10:20;;;;;;;1.20;1.20;;;;;;;;;;5097154;28;20295;-79
2024/02/04 02:12:57;;;;;;;1.25;1.15;;;;;;;;;;5096098;28;20200;-80
2024/02/04 02:15:28;;;;;;;2.13;1.75;;;;;;;;;;5096348;28;20295;-80
2024/02/04 02:18:00;;;;;;;1.27;1.17;;;;;;;;;;5096528;28;20668;-80
2024/02/04 02:20:33;;;;;;;1.63;1.52;;;;;;;;;;5096381;28;20204;-80
2024/02/04 02:23:08;;;;;;;1.70;1.60;;;;;;;;;;5088572;28;20243;-80
2024/02/04 02:25:38;;;;;;;1.30;1.17;;;;;;;;;;5096585;28;20258;-79
2024/02/04 02:28:06;;;;;;;1.40;1.30;;;;;;;;;;5096233;28;20220;-79
2024/02/04 02:30:33;;;;;;;1.23;1.17;;;;;;;;;;5096179;28;20212;-80
2024/02/04 02:33:01;;;;;;;1.35;1.25;;;;;;;;;;5095685;28;20200;-79
2024/02/04 02:35:28;;;;;;;1.42;1.33;;;;;;;;;;5086864;28;20287;-79
2024/02/04 02:38:01;;;;;;;1.58;1.20;;;;;;;;;;5095870;28;20232;-77
2024/02/04 02:40:34;;;;;;;1.15;1.15;;;;;;;;;;5096408;28;20204;-79
2024/02/04 02:43:04;;;;;;;1.48;1.25;;;;;;;;;;5088373;28;20284;-78
2024/02/04 02:45:32;;;;;;;1.05;1.05;;;;;;;;;;5096039;28;20723;-77
2024/02/04 02:48:00;;;;;;;1.27;1.20;;;;;;;;;;5095994;28;20232;-77
2024/02/04 02:50:28;;;;;;;1.75;1.10;;;;;;;;;;5096726;28;20567;-78
2024/02/04 02:52:55;;;;;;;1.25;1.15;;;;;;;;;;5095274;28;20210;-78
2024/02/04 02:55:22;;;;;;;1.30;1.25;;;;;;;;;;5095986;28;20272;-78
2024/02/04 02:57:50;;;;;;;0.90;0.90;;;;;;;;;;5095303;28;20228;-78
2024/02/04 03:00:20;;;;;;;1.50;1.40;;;;;;;;;;5095494;28;20210;-78
2024/02/04 03:02:47;;;;;;;1.55;1.45;;;;;;;;;;5095449;28;20283;-79
2024/02/04 03:05:16;;;;;;;1.20;1.20;;;;;;;;;;5095956;28;20211;-79
2024/02/04 03:07:43;;;;;;;1.30;1.20;;;;;;;;;;5096099;28;20266;-79
2024/02/04 03:10:11;;;;;;;1.00;1.00;;;;;;;;;;5087333;28;20207;-79
2024/02/04 03:12:39;;;;;;;1.00;1.00;;;;;;;;;;5095150;28;20283;-79
2024/02/04 03:15:08;;;;;;;0.98;0.98;;;;;;;;;;5095771;28;20290;-77
2024/02/04 03:17:36;;;;;;;1.20;1.10;;;;;;;;;;5095646;28;20746;-78
2024/02/04 03:20:04;;;;;;;1.33;1.23;;;;;;;;;;5096421;28;20224;-77
2024/02/04 03:22:32;;;;;;;1.25;1.15;;;;;;;;;;5096054;28;20679;-78
2024/02/04 03:24:59;;;;;;;1.08;1.00;;;;;;;;;;5095966;28;20208;-79
2024/02/04 03:27:28;;;;;;;1.50;1.20;;;;;;;;;;5095248;28;20592;-79
2024/02/04 03:29:55;;;;;;;0.80;0.80;;;;;;;;;;5095609;28;20208;-79
2024/02/04 03:32:22;;;;;;;1.27;1.20;;;;;;;;;;5095507;28;20291;-79
2024/02/04 03:34:51;;;;;;;0.90;0.90;;;;;;;;;;5095391;28;20208;-77
2024/02/04 03:37:19;;;;;;;0.98;0.98;;;;;;;;;;5095831;28;20230;-79
2024/02/04 03:39:46;;;;;;;1.58;1.48;;;;;;;;;;5095280;28;20225;-78
2024/02/04 03:42:13;;;;;;;0.93;0.93;;;;;;;;;;5096038;28;20722;-79
2024/02/04 03:44:41;;;;;;;0.90;0.90;;;;;;;;;;5086822;28;20211;-79
2024/02/04 03:47:08;;;;;;;0.80;0.80;;;;;;;;;;5089930;28;20231;-79
2024/02/04 03:49:36;;;;;;;1.25;1.25;;;;;;;;;;5090413;28;20264;-78
2024/02/04 03:52:05;;;;;;;0.70;0.70;;;;;;;;;;5099103;28;20206;-78
2024/02/04 03:54:33;;;;;;;0.85;0.85;;;;;;;;;;5098997;28;20294;-78
2024/02/04 03:57:00;;;;;;;1.00;0.90;;;;;;;;;;5099315;28;20315;-78
2024/02/04 03:59:28;;;;;;;0.77;0.77;;;;;;;;;;5099197;28;20228;-78
2024/02/04 04:01:57;;;;;;;0.80;0.80;;;;;;;;;;5098975;28;20280;-77
2024/02/04 04:04:26;;;;;;;0.80;0.80;;;;;;;;;;5099344;28;20211;-78
2024/02/04 04:06:53;;;;;;;0.98;0.98;;;;;;;;;;5098945;28;20309;-79
2024/02/04 04:09:22;;;;;;;0.90;0.90;;;;;;;;;;5098687;28;20196;-78
2024/02/04 04:11:49;;;;;;;0.85;0.85;;;;;;;;;;5088162;28;20239;-78
2024/02/04 04:14:17;;;;;;;1.08;0.98;;;;;;;;;;5084785;28;20287;-78
2024/02/04 04:16:44;;;;;;;0.80;0.80;;;;;;;;;;5081485;28;20316;-78
2024/02/04 04:19:12;;;;;;;1.08;1.08;;;;;;;;;;5098972;28;20291;-79
2024/02/04 04:21:40;;;;;;;0.90;0.90;;;;;;;;;;5090525;28;20603;-78
2024/02/04 04:24:07;;;;;;;1.00;1.00;;;;;;;;;;5090448;28;20225;-78
2024/02/04 04:26:36;;;;;;;0.90;0.90;;;;;;;;;;5089665;28;20314;-78
2024/02/04 04:29:04;;;;;;;0.88;0.88;;;;;;;;;;5091234;28;20311;-78
2024/02/04 04:31:31;;;;;;;1.10;1.02;;;;;;;;;;5098317;28;20271;-76
2024/02/04 04:33:59;;;;;;;1.15;1.15;;;;;;;;;;5090229;28;20210;-77
2024/02/04 04:36:26;;;;;;;0.90;0.90;;;;;;;;;;5090512;28;20291;-79
2024/02/04 04:38:53;;;;;;;0.90;0.90;;;;;;;;;;5094911;28;20205;-79
2024/02/04 04:41:21;;;;;;;1.73;1.00;;;;;;;;;;5086760;28;20201;-78
2024/02/04 04:43:50;;;;;;;1.20;1.13;;;;;;;;;;5088333;28;20205;-78
2024/02/04 04:46:17;;;;;;;0.75;0.75;;;;;;;;;;5089826;28;20677;-77
2024/02/04 04:48:45;;;;;;;0.70;0.70;;;;;;;;;;5089541;28;20208;-78
2024/02/04 04:51:13;;;;;;;0.70;0.70;;;;;;;;;;5097836;28;20212;-78
2024/02/04 04:53:40;;;;;;;0.60;0.60;;;;;;;;;;5088798;28;20701;-78
2024/02/04 04:56:08;;;;;;;0.90;0.90;;;;;;;;;;5086261;28;20239;-78
2024/02/04 04:58:37;;;;;;;0.57;0.57;;;;;;;;;;5085164;28;20559;-79
2024/02/04 05:01:06;;;;;;;0.60;0.60;;;;;;;;;;5093769;28;20684;-78
2024/02/04 05:03:34;;;;;;;0.80;0.80;;;;;;;;;;5086530;28;20292;-78
2024/02/04 05:06:01;;;;;;;0.50;0.50;;;;;;;;;;5094151;28;20296;-77
2024/02/04 05:08:29;;;;;;;0.63;0.63;;;;;;;;;;5085474;28;20221;-79
2024/02/04 05:10:56;;;;;;;0.90;0.90;;;;;;;;;;5089679;28;20584;-78
2024/02/04 05:13:24;;;;;;;0.77;0.77;;;;;;;;;;5097442;28;20210;-78
2024/02/04 05:15:51;;;;;;;1.60;0.75;;;;;;;;;;5094301;28;20250;-77
2024/02/04 05:18:20;;;;;;;0.80;0.80;;;;;;;;;;5092588;28;20220;-79
2024/02/04 05:20:48;;;;;;;0.88;0.88;;;;;;;;;;5086194;28;20226;-78
2024/02/04 05:23:15;;;;;;;0.70;0.70;;;;;;;;;;5085601;28;20197;-77
2024/02/04 05:25:43;;;;;;;10.05;1.00;;;;;;;;;;5086487;28;20264;-78
2024/02/04 05:28:10;;;;;;;1.00;1.00;;;;;;;;;;5089065;28;20231;-79
2024/02/04 05:30:38;;;;;;;1.23;1.08;;;;;;;;;;5088321;28;20284;-77
2024/02/04 05:33:06;;;;;;;0.98;0.98;;;;;;;;;;5088841;28;20200;-78
2024/02/04 05:35:37;;;;;;;1.25;1.23;;;;;;;;;;5088238;28;20200;-78
2024/02/04 05:38:04;;;;;;;1.60;1.50;;;;;;;;;;5089893;28;20707;-78
2024/02/04 05:40:32;;;;;;;1.85;1.75;;;;;;;;;;5088727;28;20247;-79
2024/02/04 05:42:59;;;;;;;1.52;1.42;;;;;;;;;;5096336;28;20287;-79
2024/02/04 05:45:27;;;;;;;2.22;2.13;;;;;;;;;;5096585;28;20214;-78
2024/02/04 05:47:54;;;;;;;2.08;1.98;;;;;;;;;;5096226;28;20255;-78
2024/02/04 05:50:22;;;;;;;1.63;1.52;;;;;;;;;;5096675;28;20201;-79
2024/02/04 05:52:50;;;;;;;2.28;2.15;;;;;;;;;;5094419;28;20550;-79
2024/02/04 05:55:18;;;;;;;2.50;2.30;;;;;;;;;;5091328;28;20211;-77
2024/02/04 05:57:45;;;;;;;3.08;1.98;;;;;;;;;;5096373;28;20228;-78
2024/02/04 06:00:15;;;;;;;1.88;1.77;;;;;;;;;;5096533;28;20701;-77
2024/02/04 06:02:43;;;;;;;2.38;2.17;;;;;;;;;;5095863;28;20210;-78
2024/02/04 06:05:11;;;;;;;2.45;2.25;;;;;;;;;;5096118;28;20200;-78
2024/02/04 06:07:39;;;;;;;2.40;2.22;;;;;;;;;;5088270;28;20287;-79
2024/02/04 06:10:10;;;;;;;2.80;2.40;;;;;;;;;;5096346;28;20699;-78
2024/02/04 06:12:40;;;;;;;2.50;2.33;;;;;;;;;;5096226;28;20288;-77
2024/02/04 06:15:14;;;;;;;2.25;2.15;;;;;;;;;;5097000;28;20723;-78
2024/02/04 06:17:41;;;;;;;3.30;3.03;;;;;;;;;;5096419;28;20236;-78
2024/02/04 06:20:10;;;;;;;3.00;2.70;;;;;;;;;;5095760;28;20243;-78
2024/02/04 06:22:37;;;;;;;4.18;3.35;;;;;;;;;;5096057;28;20285;-77
2024/02/04 06:25:07;;;;;;;2.88;2.67;;;;;;;;;;5095628;28;20212;-78
2024/02/04 06:27:34;;;;;;;2.63;2.42;;;;;;;;;;5096998;28;20255;-77
2024/02/04 06:30:02;;;;;;;2.78;2.58;;;;;;;;;;5095910;28;20211;-78
2024/02/04 06:32:29;;;;;;;3.33;3.03;;;;;;;;;;5095724;28;20294;-79
2024/02/04 06:34:58;;;;;;;3.90;3.60;;;;;;;;;;5096152;28;20650;-78
2024/02/04 06:37:25;;;;;;;1.98;1.88;;;;;;;;;;5096255;28;20706;-79
2024/02/04 06:39:54;;;;;;;2.58;2.38;;;;;;;;;;5095946;28;20204;-77
2024/02/04 06:42:22;;;;;;;3.35;3.05;;;;;;;;;;5095276;28;20319;-78
2024/02/04 06:44:50;;;;;;;5.90;4.28;;;;;;;;;;5095271;28;20222;-79
2024/02/04 06:47:17;;;;;;;4.15;3.85;;;;;;;;;;5095738;28;20721;-79
2024/02/04 06:49:46;;;;;;;4.00;3.60;;;;;;;;;;5096108;28;20204;-77
2024/02/04 06:52:13;;;;;;;2.92;2.72;;;;;;;;;;5095740;28;20200;-78
2024/02/04 06:54:41;;;;;;;2.80;2.60;;;;;;;;;;5096108;28;20206;-78
2024/02/04 06:57:08;;;;;;;2.80;2.58;;;;;;;;;;5095505;28;20774;-78
2024/02/04 06:59:37;;;;;;;3.00;2.70;;;;;;;;;;5095763;28;20211;-78
2024/02/04 07:02:05;;;;;;;2.67;2.47;;;;;;;;;;5096376;28;20234;-78
2024/02/04 07:04:32;;;;;;;2.58;2.38;;;;;;;;;;5096744;28;20208;-77
2024/02/04 07:06:59;;;;;;;2.60;2.40;;;;;;;;;;5091997;28;20232;-78
2024/02/04 07:09:27;;;;;;;2.35;2.15;;;;;;;;;;5091407;28;20204;-76
2024/02/04 07:11:54;;;;;;;3.38;3.08;;;;;;;;;;5095606;28;20204;-78
2024/02/04 07:14:22;;;;;;;3.05;2.83;;;;;;;;;;5096129;28;20204;-78
2024/02/04 07:16:51;;;;;;;3.03;2.78;;;;;;;;;;5096164;28;20224;-79
2024/02/04 07:19:19;;;;;;;3.65;3.35;;;;;;;;;;5096772;28;20243;-76
2024/02/04 07:21:46;;;;;;;2.30;2.10;;;;;;;;;;5097887;28;20220;-78
2024/02/04 07:24:14;;;;;;;2.22;2.03;;;;;;;;;;5099999;28;20203;-78
2024/02/04 07:26:41;;;;;;;1.80;1.70;;;;;;;;;;5100538;28;20315;-77
2024/02/04 07:29:08;;;;;;;1.58;1.48;;;;;;;;;;5100629;28;20300;-78
2024/02/04 07:31:37;;;;;;;2.10;2.00;;;;;;;;;;5100082;28;20206;-78
2024/02/04 07:34:06;;;;;;;2.13;1.98;;;;;;;;;;5100094;28;20295;-77
2024/02/04 07:36:34;;;;;;;1.83;1.73;;;;;;;;;;5100547;28;20234;-79
2024/02/04 07:39:04;;;;;;;1.85;1.70;;;;;;;;;;5091270;28;20231;-77
2024/02/04 07:41:32;;;;;;;2.00;1.90;;;;;;;;;;5091421;28;20220;-77
2024/02/04 07:43:59;;;;;;;2.17;2.00;;;;;;;;;;5091976;28;20287;-77
2024/02/04 07:46:27;;;;;;;1.52;1.40;;;;;;;;;;5099644;28;20204;-79
2024/02/04 07:48:54;;;;;;;2.63;2.42;;;;;;;;;;5095631;28;20282;-77
2024/02/04 07:51:23;;;;;;;1.70;1.60;;;;;;;;;;5095388;28;20200;-77
2024/02/04 07:53:51;;;;;;;2.03;1.90;;;;;;;;;;5095956;28;20291;-77
2024/02/04 07:56:18;;;;;;;2.95;2.75;;;;;;;;;;5094707;28;20204;-77
2024/02/04 07:58:45;;;;;;;3.65;3.22;;;;;;;;;;5094685;28;20204;-77
2024/02/04 08:01:13;;;;;;;2.53;2.33;;;;;;;;;;5094987;28;20231;-77
2024/02/04 08:03:40;;;;;;;2.60;2.38;;;;;;;;;;5094558;28;20215;-76
2024/02/04 08:06:08;;;;;;;3.00;2.72;;;;;;;;;;5094714;28;20204;-76
2024/02/04 08:08:37;;;;;;;2.80;2.60;;;;;;;;;;5094741;28;20698;-76
2024/02/04 08:11:05;;;;;;;2.55;2.35;;;;;;;;;;5094816;28;20200;-77
2024/02/04 08:13:32;;;;;;;2.40;2.20;;;;;;;;;;5094644;28;20714;-77
2024/02/04 08:15:59;;;;;;;2.33;2.13;;;;;;;;;;5094475;28;20218;-77
2024/02/04 08:18:27;;;;;;;2.17;1.98;;;;;;;;;;5094397;28;20713;-77
2024/02/04 08:20:54;;;;;;;1.98;1.88;;;;;;;;;;5093936;28;20295;-77
2024/02/04 08:23:22;;;;;;;1.92;1.83;;;;;;;;;;5094610;28;20220;-77
2024/02/04 08:25:51;;;;;;;1.90;1.80;;;;;;;;;;5094310;28;20501;-77
2024/02/04 08:28:18;;;;;;;2.38;2.25;;;;;;;;;;5094639;28;20224;-76
2024/02/04 08:30:46;;;;;;;2.03;1.92;;;;;;;;;;5094585;28;20211;-77
2024/02/04 08:33:13;;;;;;;1.70;1.60;;;;;;;;;;5093065;28;20204;-77
2024/02/04 08:35:41;;;;;;;1.50;1.45;;;;;;;;;;5097771;28;20666;-78
2024/02/04 08:38:08;;;;;;;2.00;1.90;;;;;;;;;;5099995;28;20220;-77
2024/02/04 08:40:36;;;;;;;3.45;3.15;;;;;;;;;;5101961;28;20208;-78
2024/02/04 08:43:05;;;;;;;2.90;2.70;;;;;;;;;;5102232;28;20230;-78
2024/02/04 08:45:32;;;;;;;2.40;2.20;;;;;;;;;;5100398;28;20689;-78
2024/02/04 08:48:01;;;;;;;2.45;2.25;;;;;;;;;;5097374;28;20255;-77
2024/02/04 08:50:29;;;;;;;2.10;2.00;;;;;;;;;;5095018;28;20211;-78
2024/02/04 08:52:57;;;;;;;2.63;2.42;;;;;;;;;;5099759;28;20239;-77
2024/02/04 08:55:24;;;;;;;1.58;1.48;;;;;;;;;;5100479;28;20200;-78
2024/02/04 08:57:53;;;;;;;2.22;2.03;;;;;;;;;;5097558;28;20220;-78
2024/02/04 09:00:22;;;;;;;1.50;1.40;;;;;;;;;;5085437;28;20208;-78
2024/02/04 09:02:50;;;;;;;1.55;1.45;;;;;;;;;;5100228;28;20220;-78
2024/02/04 09:05:18;;;;;;;1.73;1.63;;;;;;;;;;5101838;28;20597;-78
2024/02/04 09:07:46;;;;;;;1.92;1.77;;;;;;;;;;5102059;28;20694;-78
2024/02/04 09:10:13;;;;;;;1.83;1.73;;;;;;;;;;5101688;28;20272;-78
2024/02/04 09:12:41;;;;;;;1.58;1.48;;;;;;;;;;5100601;28;20224;-78
2024/02/04 09:15:09;;;;;;;1.60;1.50;;;;;;;;;;5102939;28;20557;-78
2024/02/04 09:17:38;;;;;;;1.73;1.63;;;;;;;;;;5100979;28;20291;-78
2024/02/04 09:20:07;;;;;;;1.70;1.60;;;;;;;;;;5100841;28;20208;-78
2024/02/04 09:22:35;;;;;;;1.60;1.50;;;;;;;;;;5083702;28;20246;-78
2024/02/04 09:25:02;;;;;;;1.23;1.20;;;;;;;;;;5085121;28;20232;-78
2024/02/04 09:27:30;;;;;;;1.85;1.48;;;;;;;;;;5101441;28;20227;-78
2024/02/04 09:29:58;;;;;;;1.67;1.05;;;;;;;;;;5089462;28;20730;-77
2024/02/04 09:32:26;;;;;;;0.93;0.93;;;;;;;;;;5093562;28;20370;-77
2024/02/04 09:34:54;;;;;;;1.30;1.20;;;;;;;;;;5093197;28;20200;-77
2024/02/04 09:37:22;;;;;;;1.40;1.30;;;;;;;;;;5094471;28;20230;-78
2024/02/04 09:39:49;;;;;;;1.45;1.35;;;;;;;;;;5094267;28;20214;-77
2024/02/04 09:42:21;;;;;;;1.02;1.02;;;;;;;;;;5095210;28;20733;-76
2024/02/04 09:44:50;;;;;;;1.35;1.25;;;;;;;;;;5093542;28;20200;-78
2024/02/04 09:47:17;;;;;;;1.38;1.30;;;;;;;;;;5094612;28;20245;-77
2024/02/04 09:49:45;;;;;;;1.50;1.40;;;;;;;;;;5094283;28;20855;-77
2024/02/04 09:52:17;;;;;;;1.73;1.63;;;;;;;;;;5096930;28;20227;-78
2024/02/04 09:54:48;;;;;;;2.05;1.77;;;;;;;;;;5088502;28;20280;-77
2024/02/04 09:57:15;;;;;;;2.33;2.13;;;;;;;;;;5094804;28;20224;-77
2024/02/04 09:59:44;;;;;;;1.77;1.67;;;;;;;;;;5098584;28;20298;-78
2024/02/04 10:02:12;;;;;;;2.22;2.03;;;;;;;;;;5097742;28;20208;-77
2024/02/04 10:04:39;;;;;;;1.80;1.70;;;;;;;;;;5098952;28;20196;-77
2024/02/04 10:07:07;;;;;;;2.17;1.92;;;;;;;;;;5099037;28;20228;-78
2024/02/04 10:09:36;;;;;;;2.33;2.22;;;;;;;;;;5099731;28;20208;-78
2024/02/04 10:12:03;;;;;;;2.00;1.88;;;;;;;;;;5101183;28;20643;-78
2024/02/04 10:14:31;;;;;;;2.22;2.10;;;;;;;;;;5097901;28;20261;-78
2024/02/04 10:16:58;;;;;;;1.80;1.70;;;;;;;;;;5090335;28;20284;-78
2024/02/04 10:19:26;;;;;;;2.42;1.92;;;;;;;;;;5097862;28;20206;-78
2024/02/04 10:22:01;;;;;;;1.90;1.80;;;;;;;;;;5097766;28;20211;-78
2024/02/04 10:24:29;;;;;;;2.35;2.25;;;;;;;;;;5097566;28;20230;-77
2024/02/04 10:26:58;;;;;;;1.70;1.60;;;;;;;;;;5098826;28;20227;-78
2024/02/04 10:29:27;;;;;;;1.98;1.88;;;;;;;;;;5098595;28;20283;-78
2024/02/04 10:31:57;;;;;;;2.03;1.92;;;;;;;;;;5097224;28;20211;-78
2024/02/04 10:34:25;;;;;;;2.13;2.00;;;;;;;;;;5096256;28;20663;-78
2024/02/04 10:36:52;;;;;;;1.77;1.67;;;;;;;;;;5096618;28;20569;-77
2024/02/04 10:39:20;;;;;;;2.05;1.95;;;;;;;;;;5096634;28;20287;-78
2024/02/04 10:41:52;;;;;;;7.15;3.17;;;;;;;;;;5097133;28;20291;-78
2024/02/04 10:44:23;;;;;;;3.75;2.13;;;;;;;;;;5099622;28;20736;-77
2024/02/04 10:46:52;;;;;;;1.45;1.42;;;;;;;;;;5097516;28;20239;-78
2024/02/04 10:49:20;;;;;;;1.85;1.75;;;;;;;;;;5098270;28;20231;-78
2024/02/04 10:51:49;;;;;;;1.58;1.48;;;;;;;;;;5097902;28;20205;-78
2024/02/04 10:54:18;;;;;;;1.88;1.77;;;;;;;;;;5098967;28;20230;-77
2024/02/04 10:56:47;;;;;;;1.40;1.30;;;;;;;;;;5097115;28;20235;-78
2024/02/04 10:59:19;;;;;;;1.63;1.42;;;;;;;;;;5096310;28;20295;-78
2024/02/04 11:01:49;;;;;;;2.05;1.95;;;;;;;;;;5095769;28;20249;-77
2024/02/04 11:04:18;;;;;;;1.67;1.58;;;;;;;;;;5096998;28;20247;-78
2024/02/04 11:06:46;;;;;;;2.00;1.73;;;;;;;;;;5096946;28;20216;-78
2024/02/04 11:09:15;;;;;;;1.48;1.38;;;;;;;;;;5093577;28;20696;-78
2024/02/04 11:11:42;;;;;;;1.95;1.85;;;;;;;;;;5095013;28;20215;-77
2024/02/04 11:14:13;;;;;;;1.58;1.25;;;;;;;;;;5096281;28;20200;-78
2024/02/04 11:17:07;;;;;;;1.75;1.00;;;;;;;;;;5093239;28;20316;-78
2024/02/04 11:19:44;;;;;;;1.40;1.30;;;;;;;;;;5084848;28;20208;-77
2024/02/04 11:22:25;;;;;;;1.45;1.35;;;;;;;;;;5097412;28;20271;-78
2024/02/04 11:25:22;;;;;;;1.50;1.40;;;;;;;;;;5097534;28;20216;-78
2024/02/04 11:27:50;;;;;;;2.50;1.55;;;;;;;;;;5095437;28;20338;-78
2024/02/04 11:30:17;;;;;;;2.60;1.33;;;;;;;;;;5096663;28;20207;-78
2024/02/04 11:32:47;;;;;;;1.30;1.30;;;;;;;;;;5093947;28;20204;-78
2024/02/04 11:35:14;;;;;;;1.20;1.20;;;;;;;;;;5096704;28;20197;-78
2024/02/04 11:37:45;;;;;;;1.60;1.50;;;;;;;;;;5096417;28;20224;-78
2024/02/04 11:40:18;;;;;;;1.20;1.10;;;;;;;;;;5095567;28;20196;-78
2024/02/04 11:42:46;;;;;;;1.67;1.58;;;;;;;;;;5094845;28;20196;-78
2024/02/04 11:45:15;;;;;;;1.30;1.20;;;;;;;;;;5094335;28;20236;-78
2024/02/04 11:47:42;;;;;;;1.08;1.08;;;;;;;;;;5092855;28;20232;-77
2024/02/04 11:50:12;;;;;;;2.17;1.98;;;;;;;;;;5095194;28;20201;-77
2024/02/04 11:52:40;;;;;;;1.33;1.23;;;;;;;;;;5094682;28;20243;-77
2024/02/04 11:55:13;;;;;;;1.35;1.20;;;;;;;;;;5094120;28;20288;-78
2024/02/04 11:57:40;;;;;;;1.08;1.00;;;;;;;;;;5086505;28;20319;-77
2024/02/04 12:00:10;;;;;;;3.15;1.77;;;;;;;;;;5092455;28;20295;-78
2024/02/04 12:02:38;;;;;;;1.13;1.13;;;;;;;;;;5092681;28;20212;-78
2024/02/04 12:05:06;;;;;;;1.60;1.25;;;;;;;;;;5093775;28;20678;-77
2024/02/04 12:07:35;;;;;;;2.40;1.20;;;;;;;;;;5094213;28;20763;-77
2024/02/04 12:10:05;;;;;;;1.13;1.10;;;;;;;;;;5097227;28;20234;-78
2024/02/04 12:12:33;;;;;;;0.90;0.90;;;;;;;;;;5096918;28;20663;-77
2024/02/04 12:15:02;;;;;;;1.40;1.30;;;;;;;;;;5098568;28;20211;-77
2024/02/04 12:17:29;;;;;;;0.70;0.70;;;;;;;;;;5096184;28;20232;-78
2024/02/04 12:19:57;;;;;;;1.13;1.10;;;;;;;;;;5095909;28;20574;-78
2024/02/04 12:22:25;;;;;;;0.90;0.90;;;;;;;;;;5094559;28;20204;-77
2024/02/04 12:24:53;;;;;;;0.70;0.70;;;;;;;;;;5094553;28;20294;-77
2024/02/04 12:27:21;;;;;;;0.98;0.98;;;;;;;;;;5094774;28;20228;-77
2024/02/04 12:29:52;;;;;;;1.20;1.10;;;;;;;;;;5084464;28;20212;-78
2024/02/04 12:32:20;;;;;;;1.00;1.00;;;;;;;;;;5075069;28;20185;-78
2024/02/04 12:34:51;;;;;;;1.00;1.00;;;;;;;;;;5093088;28;20215;-78
2024/02/04 12:37:19;;;;;;;0.90;0.90;;;;;;;;;;5088394;28;20274;-77
2024/02/04 12:39:46;;;;;;;1.38;1.38;;;;;;;;;;5091426;28;20291;-77
2024/02/04 12:42:19;;;;;;;1.30;1.30;;;;;;;;;;5089973;28;20206;-78
2024/02/04 12:44:48;;;;;;;1.08;1.08;;;;;;;;;;5087233;28;20209;-77
2024/02/04 12:47:19;;;;;;;0.90;0.90;;;;;;;;;;5094917;28;20736;-77
2024/02/04 12:49:46;;;;;;;0.88;0.88;;;;;;;;;;5094548;28;20205;-77
2024/02/04 12:52:14;;;;;;;1.20;1.10;;;;;;;;;;5086153;28;20690;-77
2024/02/04 12:54:45;;;;;;;1.25;1.25;;;;;;;;;;5085086;28;20585;-77
2024/02/04 12:57:24;;;;;;;1.25;1.20;;;;;;;;;;5074608;28;20571;-77
2024/02/04 12:59:51;;;;;;;1.40;1.30;;;;;;;;;;5085872;28;20204;-77
2024/02/04 13:02:19;;;;;;;1.48;1.40;;;;;;;;;;5094454;28;20200;-77
2024/02/04 13:04:47;;;;;;;1.25;1.25;;;;;;;;;;5095706;28;20224;-77
2024/02/04 13:07:16;;;;;;;2.28;1.92;;;;;;;;;;5096670;28;20273;-77
2024/02/04 13:09:44;;;;;;;1.40;1.30;;;;;;;;;;5096810;28;20204;-78
2024/02/04 13:12:12;;;;;;;1.50;1.40;;;;;;;;;;5095686;28;20808;-77
2024/02/04 13:14:42;;;;;;;1.40;1.30;;;;;;;;;;5095972;28;20199;-78
2024/02/04 13:17:09;;;;;;;1.15;1.15;;;;;;;;;;5099958;28;20251;-78
2024/02/04 13:19:38;;;;;;;1.33;1.33;;;;;;;;;;5096218;28;20268;-78
2024/02/04 13:22:06;;;;;;;1.60;1.50;;;;;;;;;;5100620;28;20215;-77
2024/02/04 13:24:33;;;;;;;1.30;1.30;;;;;;;;;;5098939;28;20254;-78
2024/02/04 13:27:02;;;;;;;1.60;1.50;;;;;;;;;;5097839;28;20691;-78
2024/02/04 13:29:30;;;;;;;2.78;2.58;;;;;;;;;;5098276;28;20196;-78
2024/02/04 13:31:59;;;;;;;2.20;2.00;;;;;;;;;;5088912;28;20714;-78
2024/02/04 13:34:26;;;;;;;1.77;1.67;;;;;;;;;;5102037;28;20295;-77
2024/02/04 13:36:54;;;;;;;1.60;1.50;;;;;;;;;;5099927;28;20224;-78
2024/02/04 13:39:21;;;;;;;1.38;1.27;;;;;;;;;;5100247;28;20204;-78
2024/02/04 13:41:49;;;;;;;1.70;1.60;;;;;;;;;;5099412;28;20232;-77
2024/02/04 13:44:16;;;;;;;2.13;1.92;;;;;;;;;;5100906;28;20268;-78
2024/02/04 13:46:44;;;;;;;1.63;1.52;;;;;;;;;;5098292;28;20441;-78
2024/02/04 13:49:13;;;;;;;2.35;1.90;;;;;;;;;;5095123;28;20215;-79
2024/02/04 13:51:40;;;;;;;1.50;1.40;;;;;;;;;;5094770;28;20200;-79
2024/02/04 13:54:08;;;;;;;1.45;1.35;;;;;;;;;;5095325;28;20651;-79
2024/02/04 13:56:36;;;;;;;1.73;1.63;;;;;;;;;;5095816;28;20227;-79
2024/02/04 13:59:03;;;;;;;1.58;1.48;;;;;;;;;;5096206;28;20212;-79
2024/02/04 14:01:31;;;;;;;1.30;1.20;;;;;;;;;;5095697;28;20230;-78
2024/02/04 14:03:58;;;;;;;1.55;1.50;;;;;;;;;;5095209;28;20214;-79
2024/02/04 14:06:27;;;;;;;1.35;1.33;;;;;;;;;;5095605;28;20230;-79
2024/02/04 14:08:54;;;;;;;1.85;1.48;;;;;;;;;;5095312;28;20218;-79
2024/02/04 14:11:22;;;;;;;1.10;1.05;;;;;;;;;;5095546;28;20576;-79
2024/02/04 14:13:49;;;;;;;1.13;1.13;;;;;;;;;;5094728;28;20215;-79
2024/02/04 14:16:17;;;;;;;1.00;1.00;;;;;;;;;;5094928;28;20211;-79
2024/02/04 14:18:45;;;;;;;1.17;1.17;;;;;;;;;;5094547;28;20200;-79
2024/02/04 14:21:14;;;;;;;1.17;1.08;;;;;;;;;;5095363;28;20276;-79
2024/02/04 14:23:43;;;;;;;1.40;1.30;;;;;;;;;;5094850;28;20659;-78
2024/02/04 14:26:18;;;;;;;1.10;1.10;;;;;;;;;;5095555;28;20277;-77
2024/02/04 14:28:45;;;;;;;1.27;1.17;;;;;;;;;;5095430;28;20203;-77
2024/02/04 14:31:13;;;;;;;0.90;0.90;;;;;;;;;;5095142;28;20243;-79
2024/02/04 14:33:41;;;;;;;0.70;0.70;;;;;;;;;;5094987;28;20296;-79
2024/02/04 14:36:10;;;;;;;1.00;1.00;;;;;;;;;;5094977;28;20286;-79
2024/02/04 14:38:38;;;;;;;1.00;0.90;;;;;;;;;;5095880;28;20662;-78
2024/02/04 14:41:07;;;;;;;0.68;0.68;;;;;;;;;;5095498;28;20211;-78
2024/02/04 14:43:35;;;;;;;0.77;0.77;;;;;;;;;;5095088;28;20643;-78
2024/02/04 14:46:03;;;;;;;0.60;0.60;;;;;;;;;;5094337;28;20226;-78
2024/02/04 14:48:30;;;;;;;0.52;0.52;;;;;;;;;;5094771;28;20235;-79
2024/02/04 14:50:58;;;;;;;5.82;0.70;;;;;;;;;;5086504;28;20204;-79